sensor_id;sensor_type;location;lat;lon;timestamp;pressure;altitude;pressure_sealevel;temperature;humidity
18201;BME280;9226;47.858;9.594;2023-03-16T00:00:11;95470.00;;;2.74;66.34
18201;BME280;9226;47.858;9.594;2023-03-16T00:02:39;95474.06;;;2.80;65.33
18201;BME280;9226;47.858;9.594;2023-03-16T00:05:05;95469.84;;;2.77;65.34
18201;BME280;9226;47.858;9.594;2023-03-16T00:07:30;95466.34;;;2.77;65.03
18201;BME280;9226;47.858;9.594;2023-03-16T00:09:56;95461.97;;;2.77;64.90
18201;BME280;9226;47.858;9.594;2023-03-16T00:12:21;95459.50;;;2.74;64.82
18201;BME280;9226;47.858;9.594;2023-03-16T00:14:47;95462.13;;;2.74;64.54
18201;BME280;9226;47.858;9.594;2023-03-16T00:17:15;95459.66;;;2.71;64.41
18201;BME280;9226;47.858;9.594;2023-03-16T00:19:53;95460.81;;;2.65;66.18
18201;BME280;9226;47.858;9.594;2023-03-16T00:22:20;95466.84;;;2.67;65.15
18201;BME280;9226;47.858;9.594;2023-03-16T00:24:46;95458.47;;;2.59;66.45
18201;BME280;9226;47.858;9.594;2023-03-16T00:27:13;95466.19;;;2.62;65.10
18201;BME280;9226;47.858;9.594;2023-03-16T00:29:43;95454.88;;;2.62;64.70
18201;BME280;9226;47.858;9.594;2023-03-16T00:32:22;95452.47;;;2.57;65.45
18201;BME280;9226;47.858;9.594;2023-03-16T00:34:48;95447.25;;;2.57;64.99
18201;BME280;9226;47.858;9.594;2023-03-16T00:37:15;95449.94;;;2.56;65.00
18201;BME280;9226;47.858;9.594;2023-03-16T00:39:42;95452.72;;;2.52;65.12
18201;BME280;9226;47.858;9.594;2023-03-16T00:42:12;95447.53;;;2.51;64.89
18201;BME280;9226;47.858;9.594;2023-03-16T00:44:38;95451.09;;;2.50;64.69
18201;BME280;9226;47.858;9.594;2023-03-16T00:47:06;95447.78;;;2.46;64.65
18201;BME280;9226;47.858;9.594;2023-03-16T00:49:33;95443.47;;;2.45;64.33
18201;BME280;9226;47.858;9.594;2023-03-16T00:52:04;95442.91;;;2.39;65.62
18201;BME280;9226;47.858;9.594;2023-03-16T00:54:31;95434.38;;;2.35;65.20
18201;BME280;9226;47.858;9.594;2023-03-16T00:57:01;95437.13;;;2.32;65.56
18201;BME280;9226;47.858;9.594;2023-03-16T00:59:27;95438.91;;;2.31;65.29
18201;BME280;9226;47.858;9.594;2023-03-16T01:01:53;95433.97;;;2.25;66.17
18201;BME280;9226;47.858;9.594;2023-03-16T01:04:19;95429.72;;;2.23;66.08
18201;BME280;9226;47.858;9.594;2023-03-16T01:06:45;95435.97;;;2.20;65.98
18201;BME280;9226;47.858;9.594;2023-03-16T01:09:11;95431.78;;;2.16;66.22
18201;BME280;9226;47.858;9.594;2023-03-16T01:11:36;95433.78;;;2.11;66.92
18201;BME280;9226;47.858;9.594;2023-03-16T01:14:02;95428.41;;;2.14;65.28
18201;BME280;9226;47.858;9.594;2023-03-16T01:16:28;95429.53;;;2.08;66.36
18201;BME280;9226;47.858;9.594;2023-03-16T01:18:53;95423.75;;;2.02;67.05
18201;BME280;9226;47.858;9.594;2023-03-16T01:21:19;95427.50;;;1.96;67.06
18201;BME280;9226;47.858;9.594;2023-03-16T01:23:45;95424.75;;;1.99;66.14
18201;BME280;9226;47.858;9.594;2023-03-16T01:26:11;95427.44;;;1.97;66.42
18201;BME280;9226;47.858;9.594;2023-03-16T01:28:37;95422.19;;;1.97;65.74
18201;BME280;9226;47.858;9.594;2023-03-16T01:31:07;95416.50;;;1.89;67.73
18201;BME280;9226;47.858;9.594;2023-03-16T01:33:34;95413.88;;;1.89;67.07
18201;BME280;9226;47.858;9.594;2023-03-16T01:36:12;95422.66;;;1.88;67.66
18201;BME280;9226;47.858;9.594;2023-03-16T01:38:37;95415.44;;;1.93;66.29
18201;BME280;9226;47.858;9.594;2023-03-16T01:41:03;95411.41;;;1.86;67.90
18201;BME280;9226;47.858;9.594;2023-03-16T01:43:31;95412.28;;;1.87;67.91
18201;BME280;9226;47.858;9.594;2023-03-16T01:54:19;95404.78;;;1.79;67.19
18201;BME280;9226;47.858;9.594;2023-03-16T01:56:55;95404.13;;;1.74;68.06
18201;BME280;9226;47.858;9.594;2023-03-16T01:59:25;95405.84;;;1.75;67.55
18201;BME280;9226;47.858;9.594;2023-03-16T02:01:52;95403.22;;;1.75;67.80
18201;BME280;9226;47.858;9.594;2023-03-16T02:04:49;95411.19;;;1.72;68.72
18201;BME280;9226;47.858;9.594;2023-03-16T02:07:17;95412.03;;;1.72;68.01
18201;BME280;9226;47.858;9.594;2023-03-16T02:09:44;95412.97;;;1.71;68.53
18201;BME280;9226;47.858;9.594;2023-03-16T02:12:12;95400.81;;;1.70;68.23
18201;BME280;9226;47.858;9.594;2023-03-16T02:14:46;95406.13;;;1.69;69.02
18201;BME280;9226;47.858;9.594;2023-03-16T02:17:14;95406.97;;;1.69;68.47
18201;BME280;9226;47.858;9.594;2023-03-16T02:22:48;95407.34;;;1.61;69.93
18201;BME280;9226;47.858;9.594;2023-03-16T02:25:20;95406.41;;;1.62;69.86
18201;BME280;9226;47.858;9.594;2023-03-16T02:28:02;95408.25;;;1.60;69.79
18201;BME280;9226;47.858;9.594;2023-03-16T02:30:30;95406.25;;;1.66;69.35
18201;BME280;9226;47.858;9.594;2023-03-16T02:32:56;95408.09;;;1.63;69.10
18201;BME280;9226;47.858;9.594;2023-03-16T02:35:22;95404.88;;;1.58;69.94
18201;BME280;9226;47.858;9.594;2023-03-16T02:37:47;95400.47;;;1.59;69.40
18201;BME280;9226;47.858;9.594;2023-03-16T02:40:23;95398.75;;;1.58;69.15
18201;BME280;9226;47.858;9.594;2023-03-16T02:43:00;95401.59;;;1.53;69.86
18201;BME280;9226;47.858;9.594;2023-03-16T02:45:55;95398.50;;;1.45;70.74
18201;BME280;9226;47.858;9.594;2023-03-16T02:48:32;95393.88;;;1.50;69.00
18201;BME280;9226;47.858;9.594;2023-03-16T02:51:00;95394.13;;;1.46;69.77
18201;BME280;9226;47.858;9.594;2023-03-16T02:53:25;95392.28;;;1.48;68.92
18201;BME280;9226;47.858;9.594;2023-03-16T02:55:51;95388.44;;;1.36;71.35
18201;BME280;9226;47.858;9.594;2023-03-16T02:58:16;95391.88;;;1.38;70.55
18201;BME280;9226;47.858;9.594;2023-03-16T03:00:43;95390.22;;;1.35;70.35
18201;BME280;9226;47.858;9.594;2023-03-16T03:03:10;95390.28;;;1.34;70.40
18201;BME280;9226;47.858;9.594;2023-03-16T03:05:36;95383.22;;;1.36;69.94
18201;BME280;9226;47.858;9.594;2023-03-16T03:08:02;95388.44;;;1.36;70.16
18201;BME280;9226;47.858;9.594;2023-03-16T03:10:28;95391.06;;;1.36;70.32
18201;BME280;9226;47.858;9.594;2023-03-16T03:12:55;95390.44;;;1.31;70.66
18201;BME280;9226;47.858;9.594;2023-03-16T03:15:22;95393.31;;;1.24;71.70
18201;BME280;9226;47.858;9.594;2023-03-16T03:17:47;95388.03;;;1.26;71.08
18201;BME280;9226;47.858;9.594;2023-03-16T03:20:13;95388.72;;;1.30;70.45
18201;BME280;9226;47.858;9.594;2023-03-16T03:22:43;95385.41;;;1.26;71.14
18201;BME280;9226;47.858;9.594;2023-03-16T03:25:11;95379.41;;;1.24;71.33
18201;BME280;9226;47.858;9.594;2023-03-16T03:27:36;95375.16;;;1.21;71.44
18201;BME280;9226;47.858;9.594;2023-03-16T03:30:03;95376.88;;;1.22;71.32
18201;BME280;9226;47.858;9.594;2023-03-16T03:32:29;95383.63;;;1.26;70.66
18201;BME280;9226;47.858;9.594;2023-03-16T03:34:54;95373.97;;;1.29;70.49
18201;BME280;9226;47.858;9.594;2023-03-16T03:37:19;95382.81;;;1.26;70.85
18201;BME280;9226;47.858;9.594;2023-03-16T03:39:45;95383.63;;;1.26;70.28
18201;BME280;9226;47.858;9.594;2023-03-16T03:42:10;95392.41;;;1.25;70.17
18201;BME280;9226;47.858;9.594;2023-03-16T03:44:36;95394.25;;;1.23;70.62
18201;BME280;9226;47.858;9.594;2023-03-16T03:47:02;95387.19;;;1.25;70.16
18201;BME280;9226;47.858;9.594;2023-03-16T03:49:28;95389.88;;;1.24;70.08
18201;BME280;9226;47.858;9.594;2023-03-16T03:51:53;95391.66;;;1.23;70.08
18201;BME280;9226;47.858;9.594;2023-03-16T03:54:19;95384.78;;;1.21;70.76
18201;BME280;9226;47.858;9.594;2023-03-16T03:56:45;95387.47;;;1.19;70.79
18201;BME280;9226;47.858;9.594;2023-03-16T03:59:10;95380.41;;;1.21;69.75
18201;BME280;9226;47.858;9.594;2023-03-16T04:01:35;95377.28;;;1.13;70.75
18201;BME280;9226;47.858;9.594;2023-03-16T04:04:01;95372.97;;;1.12;70.62
18201;BME280;9226;47.858;9.594;2023-03-16T04:06:26;95363.44;;;1.11;70.08
18201;BME280;9226;47.858;9.594;2023-03-16T04:08:52;95363.59;;;1.08;70.16
18201;BME280;9226;47.858;9.594;2023-03-16T04:11:19;95368.03;;;1.06;70.31
18201;BME280;9226;47.858;9.594;2023-03-16T04:13:45;95360.34;;;1.03;70.46
18201;BME280;9226;47.858;9.594;2023-03-16T04:16:10;95361.31;;;1.00;70.89
18201;BME280;9226;47.858;9.594;2023-03-16T04:18:40;95358.63;;;1.02;70.08
18201;BME280;9226;47.858;9.594;2023-03-16T04:21:07;95357.00;;;0.99;70.34
18201;BME280;9226;47.858;9.594;2023-03-16T04:23:37;95349.38;;;0.95;70.89
18201;BME280;9226;47.858;9.594;2023-03-16T04:26:03;95352.84;;;0.95;70.64
18201;BME280;9226;47.858;9.594;2023-03-16T04:28:30;95352.84;;;0.95;70.46
18201;BME280;9226;47.858;9.594;2023-03-16T04:31:00;95364.28;;;0.93;70.87
18201;BME280;9226;47.858;9.594;2023-03-16T04:33:26;95353.81;;;0.93;70.94
18201;BME280;9226;47.858;9.594;2023-03-16T04:35:51;95363.50;;;0.90;70.97
18201;BME280;9226;47.858;9.594;2023-03-16T04:38:17;95360.81;;;0.92;70.58
18201;BME280;9226;47.858;9.594;2023-03-16T04:40:42;95352.03;;;0.93;69.84
18201;BME280;9226;47.858;9.594;2023-03-16T04:43:07;95344.34;;;0.90;70.48
18201;BME280;9226;47.858;9.594;2023-03-16T04:45:33;95347.09;;;0.87;70.85
18201;BME280;9226;47.858;9.594;2023-03-16T04:47:58;95343.66;;;0.86;70.78
18201;BME280;9226;47.858;9.594;2023-03-16T04:50:23;95343.72;;;0.85;70.68
18201;BME280;9226;47.858;9.594;2023-03-16T04:52:49;95349.00;;;0.83;70.80
18201;BME280;9226;47.858;9.594;2023-03-16T04:55:15;95342.25;;;0.79;70.79
18201;BME280;9226;47.858;9.594;2023-03-16T04:57:41;95344.06;;;0.77;71.16
18201;BME280;9226;47.858;9.594;2023-03-16T05:00:07;95332.84;;;0.75;71.13
18201;BME280;9226;47.858;9.594;2023-03-16T05:02:39;95329.47;;;0.73;71.19
18201;BME280;9226;47.858;9.594;2023-03-16T05:05:05;95328.66;;;0.71;71.20
18201;BME280;9226;47.858;9.594;2023-03-16T05:07:31;95326.97;;;0.70;71.27
18201;BME280;9226;47.858;9.594;2023-03-16T05:09:56;95322.53;;;0.72;70.40
18201;BME280;9226;47.858;9.594;2023-03-16T05:12:22;95326.91;;;0.71;70.68
18201;BME280;9226;47.858;9.594;2023-03-16T05:14:47;95319.91;;;0.72;70.42
18201;BME280;9226;47.858;9.594;2023-03-16T05:17:12;95329.53;;;0.71;70.70
18201;BME280;9226;47.858;9.594;2023-03-16T05:19:39;95335.56;;;0.72;70.36
18201;BME280;9226;47.858;9.594;2023-03-16T05:22:04;95330.75;;;0.63;72.35
18201;BME280;9226;47.858;9.594;2023-03-16T05:24:31;95323.63;;;0.66;72.01
18201;BME280;9226;47.858;9.594;2023-03-16T05:26:56;95321.03;;;0.66;71.95
18201;BME280;9226;47.858;9.594;2023-03-16T05:29:22;95317.56;;;0.66;71.85
18201;BME280;9226;47.858;9.594;2023-03-16T05:31:49;95318.22;;;0.71;71.67
18201;BME280;9226;47.858;9.594;2023-03-16T05:34:14;95325.13;;;0.72;72.01
18201;BME280;9226;47.858;9.594;2023-03-16T05:36:40;95325.00;;;0.75;71.54
18201;BME280;9226;47.858;9.594;2023-03-16T05:39:05;95328.38;;;0.77;71.96
18201;BME280;9226;47.858;9.594;2023-03-16T05:41:32;95328.13;;;0.83;71.55
18201;BME280;9226;47.858;9.594;2023-03-16T05:43:58;95328.13;;;0.83;72.27
18201;BME280;9226;47.858;9.594;2023-03-16T05:46:23;95319.38;;;0.84;72.68
18201;BME280;9226;47.858;9.594;2023-03-16T05:48:48;95319.09;;;0.90;72.14
18201;BME280;9226;47.858;9.594;2023-03-16T05:51:14;95325.72;;;0.98;71.96
18201;BME280;9226;47.858;9.594;2023-03-16T05:53:39;95317.19;;;0.94;73.25
18201;BME280;9226;47.858;9.594;2023-03-16T05:56:05;95322.75;;;1.05;72.35
18201;BME280;9226;47.858;9.594;2023-03-16T05:58:31;95321.66;;;1.11;72.49
18201;BME280;9226;47.858;9.594;2023-03-16T06:00:58;95322.91;;;1.21;71.99
18201;BME280;9226;47.858;9.594;2023-03-16T06:03:26;95319.94;;;1.29;71.83
18201;BME280;9226;47.858;9.594;2023-03-16T06:05:51;95321.91;;;1.43;71.92
18201;BME280;9226;47.858;9.594;2023-03-16T06:08:16;95318.56;;;1.58;72.05
18201;BME280;9226;47.858;9.594;2023-03-16T06:10:42;95313.31;;;1.77;71.86
18201;BME280;9226;47.858;9.594;2023-03-16T06:13:07;95308.69;;;2.00;72.29
18201;BME280;9226;47.858;9.594;2023-03-16T06:15:32;95315.25;;;2.44;71.68
18201;BME280;9226;47.858;9.594;2023-03-16T06:17:58;95315.63;;;2.87;71.62
18201;BME280;9226;47.858;9.594;2023-03-16T06:20:23;95316.44;;;3.53;70.86
18201;BME280;9226;47.858;9.594;2023-03-16T06:22:48;95318.41;;;4.11;68.46
18201;BME280;9226;47.858;9.594;2023-03-16T06:25:14;95326.22;;;4.86;66.81
18201;BME280;9226;47.858;9.594;2023-03-16T06:27:41;95329.91;;;5.69;64.01
18201;BME280;9226;47.858;9.594;2023-03-16T06:30:08;95329.13;;;6.36;61.54
18201;BME280;9226;47.858;9.594;2023-03-16T06:32:34;95330.91;;;7.01;59.18
18201;BME280;9226;47.858;9.594;2023-03-16T06:35:00;95334.84;;;7.58;57.92
18201;BME280;9226;47.858;9.594;2023-03-16T06:37:28;95331.84;;;8.24;56.83
18201;BME280;9226;47.858;9.594;2023-03-16T06:39:53;95333.69;;;8.83;54.39
18201;BME280;9226;47.858;9.594;2023-03-16T06:42:19;95326.16;;;9.46;52.79
18201;BME280;9226;47.858;9.594;2023-03-16T06:44:44;95329.84;;;10.44;50.51
18201;BME280;9226;47.858;9.594;2023-03-16T06:47:09;95326.19;;;10.98;48.38
18201;BME280;9226;47.858;9.594;2023-03-16T06:49:36;95321.84;;;11.90;46.86
18201;BME280;9226;47.858;9.594;2023-03-16T06:52:01;95321.41;;;12.64;45.07
18201;BME280;9226;47.858;9.594;2023-03-16T06:54:27;95326.50;;;13.44;43.43
18201;BME280;9226;47.858;9.594;2023-03-16T06:56:53;95314.22;;;14.17;41.51
18201;BME280;9226;47.858;9.594;2023-03-16T06:59:19;95321.59;;;14.51;39.49
18201;BME280;9226;47.858;9.594;2023-03-16T07:01:45;95312.75;;;15.30;38.54
18201;BME280;9226;47.858;9.594;2023-03-16T07:04:11;95314.81;;;15.97;37.96
18201;BME280;9226;47.858;9.594;2023-03-16T07:06:37;95316.56;;;16.98;37.68
18201;BME280;9226;47.858;9.594;2023-03-16T07:09:03;95315.31;;;17.50;35.86
18201;BME280;9226;47.858;9.594;2023-03-16T07:11:30;95317.22;;;17.98;34.85
18201;BME280;9226;47.858;9.594;2023-03-16T07:13:56;95322.78;;;18.90;35.44
18201;BME280;9226;47.858;9.594;2023-03-16T07:16:22;95318.75;;;19.32;32.53
18201;BME280;9226;47.858;9.594;2023-03-16T07:18:48;95322.53;;;19.76;32.16
18201;BME280;9226;47.858;9.594;2023-03-16T07:21:13;95322.38;;;19.93;31.10
18201;BME280;9226;47.858;9.594;2023-03-16T07:23:39;95317.53;;;20.18;31.15
18201;BME280;9226;47.858;9.594;2023-03-16T07:26:04;95320.63;;;20.66;30.86
18201;BME280;9226;47.858;9.594;2023-03-16T07:28:32;95322.94;;;21.34;30.47
18201;BME280;9226;47.858;9.594;2023-03-16T07:30:58;95321.03;;;22.19;30.14
18201;BME280;9226;47.858;9.594;2023-03-16T07:33:23;95325.84;;;22.66;28.55
18201;BME280;9226;47.858;9.594;2023-03-16T07:35:48;95324.19;;;22.65;27.43
18201;BME280;9226;47.858;9.594;2023-03-16T07:38:14;95330.50;;;22.99;26.88
18201;BME280;9226;47.858;9.594;2023-03-16T07:40:39;95333.09;;;23.47;26.91
18201;BME280;9226;47.858;9.594;2023-03-16T07:43:06;95335.19;;;23.85;26.11
18201;BME280;9226;47.858;9.594;2023-03-16T07:45:31;95333.25;;;24.19;25.22
18201;BME280;9226;47.858;9.594;2023-03-16T07:47:57;95334.53;;;24.75;24.76
18201;BME280;9226;47.858;9.594;2023-03-16T07:50:22;95335.56;;;25.13;24.64
18201;BME280;9226;47.858;9.594;2023-03-16T07:52:47;95339.00;;;25.65;22.97
18201;BME280;9226;47.858;9.594;2023-03-16T07:55:13;95337.88;;;25.98;23.80
18201;BME280;9226;47.858;9.594;2023-03-16T07:57:39;95337.53;;;26.13;23.14
18201;BME280;9226;47.858;9.594;2023-03-16T08:00:07;95337.41;;;26.63;22.36
18201;BME280;9226;47.858;9.594;2023-03-16T08:02:33;95340.91;;;27.01;22.52
18201;BME280;9226;47.858;9.594;2023-03-16T08:04:58;95335.19;;;27.21;21.56
18201;BME280;9226;47.858;9.594;2023-03-16T08:07:24;95337.53;;;27.59;21.83
18201;BME280;9226;47.858;9.594;2023-03-16T08:09:50;95335.03;;;28.12;21.16
18201;BME280;9226;47.858;9.594;2023-03-16T08:12:16;95330.69;;;27.69;20.08
18201;BME280;9226;47.858;9.594;2023-03-16T08:14:41;95331.97;;;27.42;21.13
18201;BME280;9226;47.858;9.594;2023-03-16T08:17:09;95328.31;;;27.60;20.45
18201;BME280;9226;47.858;9.594;2023-03-16T08:19:36;95328.09;;;28.45;20.14
18201;BME280;9226;47.858;9.594;2023-03-16T08:22:03;95325.59;;;27.60;20.10
18201;BME280;9226;47.858;9.594;2023-03-16T08:24:30;95326.88;;;27.46;20.49
18201;BME280;9226;47.858;9.594;2023-03-16T08:26:55;95318.31;;;28.20;19.84
18201;BME280;9226;47.858;9.594;2023-03-16T08:29:22;95327.16;;;27.80;19.81
18201;BME280;9226;47.858;9.594;2023-03-16T08:31:47;95324.44;;;28.27;18.99
18201;BME280;9226;47.858;9.594;2023-03-16T08:34:13;95317.56;;;28.13;19.08
18201;BME280;9226;47.858;9.594;2023-03-16T08:36:40;95310.31;;;28.30;18.93
18201;BME280;9226;47.858;9.594;2023-03-16T08:39:08;95313.88;;;27.72;18.84
18201;BME280;9226;47.858;9.594;2023-03-16T08:41:34;95318.16;;;28.39;19.40
18201;BME280;9226;47.858;9.594;2023-03-16T08:43:59;95319.97;;;28.09;19.87
18201;BME280;9226;47.858;9.594;2023-03-16T08:46:25;95315.88;;;29.29;19.31
18201;BME280;9226;47.858;9.594;2023-03-16T08:48:50;95322.94;;;28.84;18.74
18201;BME280;9226;47.858;9.594;2023-03-16T08:51:17;95318.94;;;28.51;18.78
18201;BME280;9226;47.858;9.594;2023-03-16T08:53:43;95320.84;;;27.44;19.51
18201;BME280;9226;47.858;9.594;2023-03-16T08:56:11;95320.38;;;26.31;20.24
18201;BME280;9226;47.858;9.594;2023-03-16T08:58:38;95324.66;;;27.24;19.62
18201;BME280;9226;47.858;9.594;2023-03-16T09:01:06;95327.69;;;27.35;20.21
18201;BME280;9226;47.858;9.594;2023-03-16T09:03:33;95325.75;;;27.77;19.65
18201;BME280;9226;47.858;9.594;2023-03-16T09:06:01;95328.06;;;27.20;19.07
18201;BME280;9226;47.858;9.594;2023-03-16T09:08:27;95327.81;;;27.40;19.61
18201;BME280;9226;47.858;9.594;2023-03-16T09:11:04;95324.41;;;27.56;18.74
18201;BME280;9226;47.858;9.594;2023-03-16T09:13:32;95319.91;;;27.62;18.99
18201;BME280;9226;47.858;9.594;2023-03-16T09:15:58;95316.63;;;26.32;19.02
18201;BME280;9226;47.858;9.594;2023-03-16T09:18:24;95317.91;;;26.29;19.11
18201;BME280;9226;47.858;9.594;2023-03-16T09:20:55;95314.72;;;26.14;19.34
18201;BME280;9226;47.858;9.594;2023-03-16T09:23:22;95313.66;;;26.70;18.02
18201;BME280;9226;47.858;9.594;2023-03-16T09:25:47;95309.72;;;26.85;18.18
18201;BME280;9226;47.858;9.594;2023-03-16T09:28:12;95307.56;;;27.59;17.14
18201;BME280;9226;47.858;9.594;2023-03-16T09:30:38;95305.03;;;28.00;16.79
18201;BME280;9226;47.858;9.594;2023-03-16T09:33:03;95300.16;;;28.14;16.75
18201;BME280;9226;47.858;9.594;2023-03-16T09:35:30;95302.16;;;27.71;17.18
18201;BME280;9226;47.858;9.594;2023-03-16T09:37:56;95295.53;;;28.14;16.61
18201;BME280;9226;47.858;9.594;2023-03-16T09:40:24;95294.66;;;27.43;16.65
18201;BME280;9226;47.858;9.594;2023-03-16T09:43:46;95282.53;;;26.97;16.72
18201;BME280;9226;47.858;9.594;2023-03-16T09:48:21;95277.28;;;25.91;17.94
18201;BME280;9226;47.858;9.594;2023-03-16T09:50:49;95277.63;;;26.20;18.10
18201;BME280;9226;47.858;9.594;2023-03-16T09:55:54;95276.72;;;26.07;18.05
18201;BME280;9226;47.858;9.594;2023-03-16T09:58:22;95275.06;;;26.43;18.80
18201;BME280;9226;47.858;9.594;2023-03-16T10:03:48;95264.50;;;26.84;18.13
18201;BME280;9226;47.858;9.594;2023-03-16T10:06:15;95270.66;;;26.61;18.29
18201;BME280;9226;47.858;9.594;2023-03-16T10:08:54;95250.25;;;26.70;18.56
18201;BME280;9226;47.858;9.594;2023-03-16T10:11:36;95253.84;;;26.82;17.74
18201;BME280;9226;47.858;9.594;2023-03-16T10:14:11;95243.75;;;26.71;17.87
18201;BME280;9226;47.858;9.594;2023-03-16T10:17:00;95240.88;;;26.66;18.08
18201;BME280;9226;47.858;9.594;2023-03-16T10:19:52;95247.72;;;26.20;18.46
18201;BME280;9226;47.858;9.594;2023-03-16T10:22:20;95234.75;;;26.03;18.54
18201;BME280;9226;47.858;9.594;2023-03-16T10:27:42;95223.34;;;25.25;19.00
18201;BME280;9226;47.858;9.594;2023-03-16T10:30:34;95218.59;;;24.89;19.35
18201;BME280;9226;47.858;9.594;2023-03-16T10:33:27;95229.13;;;24.79;18.99
18201;BME280;9226;47.858;9.594;2023-03-16T10:38:50;95229.44;;;24.57;18.23
18201;BME280;9226;47.858;9.594;2023-03-16T10:46:38;95222.53;;;24.93;18.99
18201;BME280;9226;47.858;9.594;2023-03-16T10:49:05;95224.25;;;24.03;18.68
18201;BME280;9226;47.858;9.594;2023-03-16T10:51:43;95212.84;;;24.33;19.04
18201;BME280;9226;47.858;9.594;2023-03-16T10:54:19;95205.63;;;23.55;18.60
18201;BME280;9226;47.858;9.594;2023-03-16T10:56:48;95208.28;;;23.75;19.45
18201;BME280;9226;47.858;9.594;2023-03-16T10:59:28;95206.09;;;23.19;19.47
18201;BME280;9226;47.858;9.594;2023-03-16T11:01:54;95202.28;;;22.80;19.89
18201;BME280;9226;47.858;9.594;2023-03-16T11:04:20;95214.19;;;23.25;20.26
18201;BME280;9226;47.858;9.594;2023-03-16T11:06:55;95207.28;;;23.49;19.71
18201;BME280;9226;47.858;9.594;2023-03-16T11:09:23;95212.69;;;22.96;19.83
18201;BME280;9226;47.858;9.594;2023-03-16T11:11:50;95212.50;;;22.98;20.27
18201;BME280;9226;47.858;9.594;2023-03-16T11:14:19;95210.25;;;23.08;20.26
18201;BME280;9226;47.858;9.594;2023-03-16T11:17:29;95216.50;;;23.15;19.51
18201;BME280;9226;47.858;9.594;2023-03-16T11:19:40;95210.25;;;23.15;19.45
18201;BME280;9226;47.858;9.594;2023-03-16T11:22:13;95205.81;;;23.60;20.08
18201;BME280;9226;47.858;9.594;2023-03-16T11:31:05;95203.31;;;22.72;18.93
18201;BME280;9226;47.858;9.594;2023-03-16T11:33:34;95203.13;;;22.73;19.30
18201;BME280;9226;47.858;9.594;2023-03-16T11:38:42;95204.38;;;22.84;19.48
18201;BME280;9226;47.858;9.594;2023-03-16T11:41:19;95205.16;;;22.31;19.93
18201;BME280;9226;47.858;9.594;2023-03-16T11:43:50;95207.25;;;22.49;19.19
18201;BME280;9226;47.858;9.594;2023-03-16T11:46:30;95192.88;;;22.42;19.81
18201;BME280;9226;47.858;9.594;2023-03-16T12:03:20;95153.94;;;20.98;18.70
18201;BME280;9226;47.858;9.594;2023-03-16T12:14:13;95144.59;;;20.51;19.91
18201;BME280;9226;47.858;9.594;2023-03-16T12:17:07;95150.38;;;20.48;20.87
18201;BME280;9226;47.858;9.594;2023-03-16T12:22:33;95137.09;;;20.03;21.02
18201;BME280;9226;47.858;9.594;2023-03-16T12:25:02;95140.84;;;19.36;21.47
18201;BME280;9226;47.858;9.594;2023-03-16T12:27:31;95141.06;;;18.43;23.10
18201;BME280;9226;47.858;9.594;2023-03-16T12:30:05;95133.38;;;18.78;22.39
18201;BME280;9226;47.858;9.594;2023-03-16T12:35:42;95127.31;;;18.00;22.56
18201;BME280;9226;47.858;9.594;2023-03-16T12:38:38;95124.00;;;17.89;22.96
18201;BME280;9226;47.858;9.594;2023-03-16T12:46:41;95124.84;;;18.13;22.31
18201;BME280;9226;47.858;9.594;2023-03-16T12:49:10;95126.78;;;18.04;22.00
18201;BME280;9226;47.858;9.594;2023-03-16T12:51:38;95124.38;;;18.10;22.23
18201;BME280;9226;47.858;9.594;2023-03-16T12:54:17;95124.91;;;17.73;23.11
18201;BME280;9226;47.858;9.594;2023-03-16T12:56:44;95118.91;;;18.03;23.29
18201;BME280;9226;47.858;9.594;2023-03-16T12:59:19;95117.31;;;17.85;22.45
18201;BME280;9226;47.858;9.594;2023-03-16T13:01:49;95110.16;;;17.46;21.53
18201;BME280;9226;47.858;9.594;2023-03-16T13:04:30;95114.16;;;17.11;20.23
18201;BME280;9226;47.858;9.594;2023-03-16T13:07:06;95117.75;;;16.87;20.57
18201;BME280;9226;47.858;9.594;2023-03-16T13:09:35;95116.59;;;16.89;19.50
18201;BME280;9226;47.858;9.594;2023-03-16T13:12:07;95108.88;;;16.70;20.09
18201;BME280;9226;47.858;9.594;2023-03-16T13:14:39;95109.91;;;16.69;20.51
18201;BME280;9226;47.858;9.594;2023-03-16T13:17:30;95104.72;;;16.51;20.93
18201;BME280;9226;47.858;9.594;2023-03-16T13:26:09;95095.25;;;16.07;20.66
18201;BME280;9226;47.858;9.594;2023-03-16T13:28:32;95097.91;;;15.99;21.26
18201;BME280;9226;47.858;9.594;2023-03-16T13:31:00;95096.41;;;16.04;21.82
18201;BME280;9226;47.858;9.594;2023-03-16T13:33:29;95089.38;;;16.03;22.00
18201;BME280;9226;47.858;9.594;2023-03-16T13:35:57;95091.31;;;15.68;20.79
18201;BME280;9226;47.858;9.594;2023-03-16T13:38:25;95092.00;;;15.70;20.94
18201;BME280;9226;47.858;9.594;2023-03-16T13:40:55;95088.72;;;15.93;22.01
18201;BME280;9226;47.858;9.594;2023-03-16T13:43:25;95089.16;;;15.72;20.81
18201;BME280;9226;47.858;9.594;2023-03-16T13:45:53;95088.19;;;15.81;20.15
18201;BME280;9226;47.858;9.594;2023-03-16T13:48:19;95089.88;;;15.90;20.62
18201;BME280;9226;47.858;9.594;2023-03-16T13:50:50;95089.38;;;15.87;20.58
18201;BME280;9226;47.858;9.594;2023-03-16T13:55:53;95092.03;;;15.95;21.32
18201;BME280;9226;47.858;9.594;2023-03-16T13:58:31;95095.41;;;16.14;21.70
18201;BME280;9226;47.858;9.594;2023-03-16T14:01:00;95090.38;;;16.27;21.78
18201;BME280;9226;47.858;9.594;2023-03-16T14:03:38;95083.31;;;16.42;22.22
18201;BME280;9226;47.858;9.594;2023-03-16T14:06:05;95072.28;;;16.45;21.83
18201;BME280;9226;47.858;9.594;2023-03-16T14:08:32;95082.63;;;16.57;21.72
18201;BME280;9226;47.858;9.594;2023-03-16T14:10:59;95072.44;;;16.44;21.65
18201;BME280;9226;47.858;9.594;2023-03-16T14:16:01;95079.47;;;16.53;21.83
18201;BME280;9226;47.858;9.594;2023-03-16T14:18:38;95076.28;;;16.58;21.80
18201;BME280;9226;47.858;9.594;2023-03-16T14:21:07;95070.25;;;16.48;20.88
18201;BME280;9226;47.858;9.594;2023-03-16T14:23:41;95075.28;;;16.42;22.07
18201;BME280;9226;47.858;9.594;2023-03-16T14:26:15;95068.09;;;16.43;21.64
18201;BME280;9226;47.858;9.594;2023-03-16T14:31:49;95067.28;;;16.01;21.77
18201;BME280;9226;47.858;9.594;2023-03-16T14:34:35;95067.31;;;15.93;21.59
18201;BME280;9226;47.858;9.594;2023-03-16T14:37:14;95069.50;;;15.89;21.05
18201;BME280;9226;47.858;9.594;2023-03-16T14:39:41;95069.97;;;16.09;21.91
18201;BME280;9226;47.858;9.594;2023-03-16T14:42:24;95068.63;;;15.89;22.08
18201;BME280;9226;47.858;9.594;2023-03-16T14:44:53;95072.13;;;15.81;22.12
18201;BME280;9226;47.858;9.594;2023-03-16T14:47:21;95074.44;;;15.68;22.08
18201;BME280;9226;47.858;9.594;2023-03-16T14:49:48;95074.16;;;15.87;22.17
18201;BME280;9226;47.858;9.594;2023-03-16T14:52:32;95072.97;;;15.98;22.79